createdAt,value
2022-08-22T00:02:48.496Z,7.63
2022-08-22T00:02:53.826Z,6.88
2022-08-22T00:02:58.997Z,7.32
2022-08-22T00:03:57.300Z,6.97
2022-08-22T00:09:12.417Z,6.20
2022-08-22T00:14:19.084Z,5.38
2022-08-22T00:19:26.728Z,6.25
2022-08-22T00:24:31.828Z,5.70
2022-08-22T00:29:38.559Z,6.05
2022-08-22T00:34:46.468Z,5.50
2022-08-22T00:39:52.241Z,5.18
2022-08-22T00:45:04.024Z,4.22
2022-08-22T00:50:18.149Z,4.70
2022-08-22T00:55:35.920Z,4.63
2022-08-22T01:00:42.816Z,4.82
2022-08-22T01:06:04.060Z,4.70
2022-08-22T01:11:13.168Z,3.90
2022-08-22T01:16:22.456Z,4.38
2022-08-22T01:21:43.050Z,3.65
2022-08-22T01:27:03.769Z,3.33
2022-08-22T01:32:20.720Z,3.97
2022-08-22T01:37:52.958Z,4.25
2022-08-22T01:43:08.009Z,4.15
2022-08-22T01:48:13.745Z,3.75
2022-08-22T01:53:19.720Z,4.00
2022-08-22T01:58:25.222Z,3.90
2022-08-22T02:03:31.761Z,4.32
2022-08-22T02:08:39.015Z,4.57
2022-08-22T02:13:52.902Z,3.28
2022-08-22T02:23:59.748Z,4.40
2022-08-22T02:29:09.145Z,4.18
2022-08-22T02:34:21.899Z,4.15
2022-08-22T02:39:28.304Z,4.72
2022-08-22T02:44:35.706Z,4.57
2022-08-22T02:49:45.268Z,4.38
2022-08-22T02:54:49.808Z,4.40
2022-08-22T03:00:07.850Z,4.93
2022-08-22T03:05:31.784Z,4.63
2022-08-22T03:10:38.132Z,5.00
2022-08-22T03:15:49.535Z,4.65
2022-08-22T03:20:54.442Z,4.78
2022-08-22T03:26:01.467Z,4.43
2022-08-22T03:31:13.774Z,4.50
2022-08-22T03:36:25.824Z,4.60
2022-08-22T03:41:46.927Z,4.97
2022-08-22T03:46:58.445Z,4.80
2022-08-22T03:52:15.387Z,4.93
2022-08-22T03:57:45.455Z,4.97
2022-08-22T04:03:06.850Z,4.75
2022-08-22T04:08:28.004Z,4.35
2022-08-22T04:13:51.144Z,5.03
2022-08-22T04:18:58.407Z,4.82
2022-08-22T04:24:28.231Z,5.13
2022-08-22T04:29:36.642Z,5.03
2022-08-22T04:34:41.555Z,4.85
2022-08-22T04:39:48.441Z,4.97
2022-08-22T04:44:54.074Z,4.68
2022-08-22T04:50:01.014Z,5.00
2022-08-22T04:55:07.780Z,5.05
2022-08-22T05:00:12.898Z,5.13
2022-08-22T05:05:17.707Z,5.18
2022-08-22T05:10:22.737Z,4.82
2022-08-22T05:15:31.254Z,5.20
2022-08-22T05:20:35.758Z,5.03
2022-08-22T05:25:40.584Z,5.18
2022-08-22T05:30:47.071Z,4.78
2022-08-22T05:35:55.834Z,4.90
2022-08-22T05:41:03.083Z,5.40
2022-08-22T05:46:09.772Z,5.22
2022-08-22T05:51:16.658Z,5.55
2022-08-22T05:56:21.637Z,5.40
2022-08-22T06:01:28.767Z,5.47
2022-08-22T06:06:33.512Z,5.18
2022-08-22T06:11:39.525Z,5.78
2022-08-22T06:16:50.218Z,6.05
2022-08-22T06:21:53.509Z,5.30
2022-08-22T06:26:59.125Z,5.75
2022-08-22T06:32:04.713Z,5.78
2022-08-22T06:37:11.434Z,6.38
2022-08-22T06:42:16.887Z,6.47
2022-08-22T06:47:23.312Z,6.20
2022-08-22T06:52:28.416Z,7.10
2022-08-22T06:57:32.784Z,6.97
2022-08-22T07:02:39.741Z,6.20
2022-08-22T07:07:42.608Z,5.90
2022-08-22T07:12:46.609Z,5.85
2022-08-22T07:17:52.266Z,5.35
2022-08-22T07:23:02.326Z,5.28
2022-08-22T07:28:09.671Z,5.65
2022-08-22T07:33:28.788Z,5.28
2022-08-22T07:38:36.248Z,4.88
2022-08-22T07:43:41.461Z,5.72
2022-08-22T07:49:08.122Z,4.88
2022-08-22T07:54:13.445Z,4.97
2022-08-22T07:59:18.213Z,4.72
2022-08-22T08:04:26.367Z,4.38
2022-08-22T08:09:32.037Z,4.25
2022-08-22T08:14:37.381Z,4.07
2022-08-22T08:19:42.648Z,3.95
2022-08-22T08:24:46.061Z,3.78
2022-08-22T08:29:51.341Z,3.20
2022-08-22T08:34:55.685Z,3.42
2022-08-22T08:39:59.926Z,3.13
2022-08-22T08:45:17.624Z,3.28
2022-08-22T08:50:37.164Z,3.33
2022-08-22T08:55:46.405Z,2.90
2022-08-22T09:00:51.967Z,2.90
2022-08-22T09:06:22.107Z,2.80
2022-08-22T09:11:44.585Z,3.30
2022-08-22T09:16:53.811Z,2.78
2022-08-22T09:22:23.790Z,2.83
2022-08-22T09:27:33.723Z,3.33
2022-08-22T09:32:55.732Z,2.63
2022-08-22T09:38:02.009Z,2.80
2022-08-22T09:43:08.828Z,3.00
2022-08-22T09:48:22.626Z,3.55
2022-08-22T09:53:43.300Z,3.03
2022-08-22T09:58:52.562Z,3.47
2022-08-22T10:04:19.345Z,3.60
2022-08-22T10:09:32.142Z,3.15
2022-08-22T10:14:40.636Z,3.15
2022-08-22T10:19:58.322Z,3.00
2022-08-22T10:25:07.467Z,4.65
2022-08-22T10:30:13.430Z,3.10
2022-08-22T10:35:22.858Z,3.85
2022-08-22T10:40:30.430Z,3.50
2022-08-22T10:45:37.075Z,4.68
2022-08-22T10:50:43.495Z,3.60
2022-08-22T10:55:47.236Z,2.50
2022-08-22T11:00:53.825Z,3.53
2022-08-22T11:05:59.629Z,3.05
2022-08-22T11:11:07.289Z,2.58
2022-08-22T11:16:18.290Z,2.80
2022-08-22T11:21:26.789Z,3.38
2022-08-22T11:26:47.368Z,2.85
2022-08-22T11:31:55.648Z,2.90
2022-08-22T11:37:11.555Z,2.55
2022-08-22T11:42:21.851Z,2.70
2022-08-22T11:47:29.883Z,2.45
2022-08-22T11:52:53.801Z,2.42
2022-08-22T11:57:59.169Z,2.55
2022-08-22T12:03:23.169Z,2.60
2022-08-22T12:08:46.448Z,2.30
2022-08-22T12:14:02.435Z,2.13
2022-08-22T12:19:16.616Z,2.40
2022-08-22T12:24:24.758Z,2.33
2022-08-22T12:29:39.740Z,2.42
2022-08-22T12:34:55.198Z,1.90
2022-08-22T12:40:10.088Z,2.10
2022-08-22T12:45:26.924Z,2.15
2022-08-22T12:50:37.715Z,1.88
2022-08-22T12:55:50.924Z,1.90
2022-08-22T13:00:59.956Z,4.55
2022-08-22T13:06:07.844Z,2.17
2022-08-22T13:11:23.392Z,2.08
2022-08-22T13:16:27.369Z,2.50
2022-08-22T13:21:35.005Z,2.08
2022-08-22T13:26:47.018Z,2.75
2022-08-22T13:31:55.180Z,2.10
2022-08-22T13:37:04.912Z,1.90
2022-08-22T13:42:14.629Z,1.90
2022-08-22T13:47:32.503Z,3.33
2022-08-22T13:52:44.239Z,2.10
2022-08-22T13:57:56.221Z,1.90
2022-08-22T14:03:01.008Z,2.45
2022-08-22T14:08:13.306Z,2.15
2022-08-22T14:13:37.040Z,1.85
2022-08-22T14:18:45.518Z,1.63
2022-08-22T14:23:53.379Z,1.70
2022-08-22T14:28:58.385Z,1.80
2022-08-22T14:34:02.734Z,1.50
2022-08-22T14:39:10.074Z,2.05
2022-08-22T14:44:15.506Z,1.80
2022-08-22T14:49:26.831Z,1.48
2022-08-22T14:54:34.100Z,1.70
2022-08-22T14:59:40.821Z,2.00
2022-08-22T15:04:45.548Z,1.60
2022-08-22T15:09:53.111Z,1.80
2022-08-22T15:14:57.165Z,1.70
2022-08-22T15:20:10.213Z,1.55
2022-08-22T15:25:18.026Z,1.85
2022-08-22T15:30:31.825Z,1.73
2022-08-22T15:35:38.838Z,1.88
2022-08-22T15:40:44.200Z,1.50
2022-08-22T15:45:50.023Z,1.88
2022-08-22T15:50:59.281Z,1.70
2022-08-22T15:56:29.948Z,1.70
2022-08-22T16:01:42.648Z,1.83
2022-08-22T16:06:54.903Z,1.92
2022-08-22T16:11:58.861Z,2.03
2022-08-22T16:17:04.661Z,1.73
2022-08-22T16:22:11.359Z,1.90
2022-08-22T16:27:20.148Z,1.60
2022-08-22T16:32:30.429Z,1.65
2022-08-22T16:37:48.602Z,1.38
2022-08-22T16:42:54.095Z,1.60
2022-08-22T16:47:58.835Z,4.43
2022-08-22T16:53:07.447Z,1.55
2022-08-22T16:58:17.281Z,1.58
2022-08-22T17:03:23.571Z,1.70
2022-08-22T17:08:32.359Z,1.50
2022-08-22T17:13:42.473Z,1.50
2022-08-22T17:18:54.781Z,1.30
2022-08-22T17:24:08.284Z,1.50
2022-08-22T17:29:24.023Z,1.73
2022-08-22T17:34:33.929Z,2.03
2022-08-22T17:39:43.821Z,1.42
2022-08-22T17:44:51.190Z,1.55
2022-08-22T17:49:57.769Z,1.48
2022-08-22T17:55:03.730Z,1.48
2022-08-22T18:00:11.086Z,1.50
2022-08-22T18:05:17.923Z,1.60
2022-08-22T18:10:23.299Z,2.15
2022-08-22T18:15:28.866Z,1.58
2022-08-22T18:20:36.214Z,1.65
2022-08-22T18:25:41.893Z,1.65
2022-08-22T18:30:51.841Z,1.88
2022-08-22T18:36:02.160Z,1.92
2022-08-22T18:41:17.358Z,2.72
2022-08-22T18:46:28.528Z,2.35
2022-08-22T18:51:34.999Z,2.03
2022-08-22T18:56:46.835Z,2.10
2022-08-22T19:01:53.629Z,1.90
2022-08-22T19:07:11.342Z,1.88
2022-08-22T19:12:24.191Z,2.30
2022-08-22T19:17:36.402Z,1.83
2022-08-22T19:22:40.961Z,1.92
2022-08-22T19:27:45.737Z,1.80
2022-08-22T19:33:05.513Z,1.73
2022-08-22T19:38:10.501Z,1.90
2022-08-22T19:43:34.299Z,1.90
2022-08-22T19:53:48.530Z,1.73
2022-08-22T19:58:56.667Z,1.63
2022-08-22T20:04:06.923Z,1.90
2022-08-22T20:09:18.210Z,2.15
2022-08-22T20:14:30.336Z,1.90
2022-08-22T20:19:37.988Z,1.95
2022-08-22T20:24:46.480Z,2.10
2022-08-22T20:29:54.992Z,2.70
2022-08-22T20:34:59.583Z,2.55
2022-08-22T20:40:10.525Z,2.10
2022-08-22T20:45:29.651Z,2.30
2022-08-22T20:50:33.570Z,2.28
2022-08-22T20:55:37.825Z,2.50
2022-08-22T21:00:43.498Z,2.17
2022-08-22T21:05:46.640Z,2.10
2022-08-22T21:11:14.996Z,1.73
2022-08-22T21:16:18.649Z,1.90
2022-08-22T21:26:26.187Z,1.95
2022-08-22T21:31:31.333Z,2.20
2022-08-22T21:36:38.551Z,1.90
2022-08-22T21:41:44.104Z,2.10
2022-08-22T21:46:46.957Z,1.92
2022-08-22T21:51:50.326Z,2.23
2022-08-22T21:56:55.650Z,2.28
2022-08-22T22:02:18.726Z,2.38
2022-08-22T22:07:23.189Z,2.20
2022-08-22T22:12:27.413Z,2.33
2022-08-22T22:17:30.109Z,2.13
2022-08-22T22:22:32.882Z,2.17
2022-08-22T22:27:41.221Z,2.58
2022-08-22T22:32:43.945Z,2.60
2022-08-22T22:37:49.737Z,2.10
2022-08-22T22:42:53.813Z,2.20
2022-08-22T22:47:56.995Z,2.05
2022-08-22T22:53:00.089Z,2.40
2022-08-22T22:58:04.457Z,2.10
2022-08-22T23:03:07.424Z,2.05
2022-08-22T23:08:10.436Z,2.37
2022-08-22T23:13:14.524Z,2.40
2022-08-22T23:18:17.184Z,2.42
2022-08-22T23:23:23.651Z,2.30
2022-08-22T23:28:27.844Z,2.58
2022-08-22T23:33:30.536Z,2.30
2022-08-22T23:38:33.226Z,2.42
2022-08-22T23:43:37.348Z,2.55
2022-08-22T23:48:40.629Z,2.40
2022-08-22T23:53:43.923Z,2.33
2022-08-22T23:58:48.270Z,2.20
